createdAt,value
2023-02-08T00:01:27.631Z,-1.70
2023-02-08T00:03:58.136Z,-1.76
2023-02-08T00:06:28.708Z,-1.92
2023-02-08T00:09:01.073Z,-1.94
2023-02-08T00:11:31.584Z,-2.06
2023-02-08T00:14:05.725Z,-2.02
2023-02-08T00:16:36.806Z,-2.08
2023-02-08T00:19:08.974Z,-2.12
2023-02-08T00:21:41.868Z,-1.78
2023-02-08T00:24:13.694Z,-1.95
2023-02-08T00:26:45.783Z,-1.97
2023-02-08T00:29:16.714Z,-2.00
2023-02-08T00:31:48.872Z,-2.05
2023-02-08T00:34:19.765Z,-2.03
2023-02-08T00:36:51.211Z,-2.16
2023-02-08T00:39:22.039Z,-2.21
2023-02-08T00:41:52.698Z,-2.20
2023-02-08T00:44:23.282Z,-2.26
2023-02-08T00:46:54.966Z,-2.31
2023-02-08T00:49:27.664Z,-2.34
2023-02-08T00:51:59.152Z,-2.38
2023-02-08T00:54:31.451Z,-2.40
2023-02-08T00:57:02.061Z,-2.36
2023-02-08T00:59:32.847Z,-2.41
2023-02-08T01:02:03.510Z,-2.38
2023-02-08T01:04:34.192Z,-2.34
2023-02-08T01:07:06.118Z,-2.36
2023-02-08T01:09:37.558Z,-2.40
2023-02-08T01:12:08.356Z,-2.34
2023-02-08T01:14:40.030Z,-2.46
2023-02-08T01:17:10.653Z,-2.40
2023-02-08T01:19:42.590Z,-2.22
2023-02-08T01:22:13.368Z,-1.96
2023-02-08T01:24:45.365Z,-2.07
2023-02-08T01:27:15.997Z,-1.81
2023-02-08T01:29:48.081Z,-1.96
2023-02-08T01:32:19.037Z,-1.84
2023-02-08T01:34:49.476Z,-1.92
2023-02-08T01:37:24.576Z,-2.02
2023-02-08T01:39:57.565Z,-2.04
2023-02-08T01:42:28.552Z,-2.00
2023-02-08T01:45:24.896Z,-1.84
2023-02-08T01:47:58.462Z,-1.90
2023-02-08T01:50:32.241Z,-1.86
2023-02-08T01:53:03.769Z,-1.88
2023-02-08T01:55:37.362Z,-2.01
2023-02-08T01:58:10.779Z,-2.08
2023-02-08T02:00:41.869Z,-2.10
2023-02-08T02:03:12.953Z,-2.02
2023-02-08T02:05:48.897Z,-2.02
2023-02-08T02:08:19.673Z,-2.02
2023-02-08T02:10:50.977Z,-2.06
2023-02-08T02:13:24.745Z,-2.04
2023-02-08T02:15:55.694Z,-2.01
2023-02-08T02:18:29.056Z,-2.20
2023-02-08T02:21:19.780Z,-2.08
2023-02-08T02:24:13.183Z,-2.10
2023-02-08T02:26:49.635Z,-1.99
2023-02-08T02:29:41.095Z,-2.05
2023-02-08T02:32:32.888Z,-2.08
2023-02-08T02:35:09.290Z,-2.06
2023-02-08T02:37:56.370Z,-2.04
2023-02-08T02:40:39.664Z,-2.16
2023-02-08T02:43:36.851Z,-2.02
2023-02-08T02:46:16.986Z,-2.04
2023-02-08T02:49:21.051Z,-2.00
2023-02-08T02:52:09.667Z,-2.07
2023-02-08T02:54:50.284Z,-2.04
2023-02-08T02:57:29.486Z,-2.06
2023-02-08T03:00:00.782Z,-1.98
2023-02-08T03:02:31.367Z,-2.11
2023-02-08T03:05:02.243Z,-2.10
2023-02-08T03:08:16.661Z,-2.02
2023-02-08T03:11:02.409Z,-2.10
2023-02-08T03:13:47.425Z,-2.10
2023-02-08T03:16:27.312Z,-2.24
2023-02-08T03:19:03.479Z,-2.19
2023-02-08T03:21:56.488Z,-2.19
2023-02-08T03:24:32.947Z,-2.34
2023-02-08T03:27:09.267Z,-2.26
2023-02-08T03:30:02.190Z,-2.31
2023-02-08T03:32:50.821Z,-2.50
2023-02-08T03:35:35.726Z,-2.52
2023-02-08T03:38:25.534Z,-2.56
2023-02-08T03:40:59.020Z,-2.50
2023-02-08T03:43:38.620Z,-2.60
2023-02-08T03:46:21.174Z,-2.56
2023-02-08T03:48:54.880Z,-2.62
2023-02-08T03:51:27.043Z,-2.54
2023-02-08T03:53:59.120Z,-2.52
2023-02-08T03:56:38.216Z,-2.48
2023-02-08T03:59:11.834Z,-2.56
2023-02-08T04:01:51.594Z,-2.54
2023-02-08T04:04:23.222Z,-2.55
2023-02-08T04:06:54.488Z,-2.23
2023-02-08T04:09:25.100Z,-2.44
2023-02-08T04:11:56.712Z,-2.44
2023-02-08T04:14:27.721Z,-2.44
2023-02-08T04:17:01.280Z,-2.49
2023-02-08T04:19:31.852Z,-2.40
2023-02-08T04:22:02.359Z,-2.37
2023-02-08T04:24:33.055Z,-2.38
2023-02-08T04:27:05.832Z,-2.40
2023-02-08T04:29:35.794Z,-2.42
2023-02-08T04:32:08.112Z,-2.36
2023-02-08T04:34:40.931Z,-2.36
2023-02-08T04:37:12.039Z,-2.42
2023-02-08T04:39:42.541Z,-2.42
2023-02-08T04:42:12.992Z,-2.36
2023-02-08T04:44:44.467Z,-2.41
2023-02-08T04:47:14.905Z,-2.36
2023-02-08T04:49:45.435Z,-2.30
2023-02-08T04:52:15.833Z,-2.24
2023-02-08T04:54:46.322Z,-2.32
2023-02-08T04:57:17.465Z,-2.33
2023-02-08T04:59:48.164Z,-2.45
2023-02-08T05:02:20.435Z,-2.51
2023-02-08T05:04:50.890Z,-2.44
2023-02-08T05:07:21.638Z,-2.60
2023-02-08T05:09:52.563Z,-2.54
2023-02-08T05:12:25.768Z,-2.54
2023-02-08T05:14:56.728Z,-2.67
2023-02-08T05:17:27.154Z,-2.57
2023-02-08T05:19:58.885Z,-2.60
2023-02-08T05:22:30.335Z,-2.49
2023-02-08T05:25:01.439Z,-2.50
2023-02-08T05:27:32.586Z,-2.42
2023-02-08T05:30:05.102Z,-2.60
2023-02-08T05:32:35.629Z,-2.56
2023-02-08T05:35:06.764Z,-2.54
2023-02-08T05:37:37.580Z,-2.50
2023-02-08T05:40:09.504Z,-2.64
2023-02-08T05:42:42.225Z,-2.56
2023-02-08T05:45:12.789Z,-2.60
2023-02-08T05:47:43.592Z,-2.59
2023-02-08T05:50:14.736Z,-2.63
2023-02-08T05:52:45.159Z,-2.70
2023-02-08T05:55:15.999Z,-2.75
2023-02-08T05:57:46.595Z,-2.78
2023-02-08T06:00:17.902Z,-2.86
2023-02-08T06:02:49.052Z,-2.82
2023-02-08T06:05:19.653Z,-2.87
2023-02-08T06:07:50.052Z,-2.90
2023-02-08T06:10:22.145Z,-2.88
2023-02-08T06:12:52.615Z,-2.70
2023-02-08T06:15:23.074Z,-2.77
2023-02-08T06:17:54.120Z,-2.75
2023-02-08T06:20:26.530Z,-2.72
2023-02-08T06:22:57.328Z,-2.72
2023-02-08T06:25:28.850Z,-2.72
2023-02-08T06:27:59.539Z,-2.80
2023-02-08T06:30:32.489Z,-2.77
2023-02-08T06:33:05.106Z,-2.72
2023-02-08T06:35:37.691Z,-2.71
2023-02-08T06:38:10.724Z,-2.74
2023-02-08T06:40:42.033Z,-2.80
2023-02-08T06:43:15.172Z,-2.80
2023-02-08T06:45:47.476Z,-2.86
2023-02-08T06:48:18.130Z,-2.76
2023-02-08T06:50:49.276Z,-2.76
2023-02-08T06:53:19.939Z,-2.80
2023-02-08T06:55:51.505Z,-2.86
2023-02-08T06:58:24.040Z,-2.78
2023-02-08T07:00:54.602Z,-2.64
2023-02-08T07:03:27.787Z,-2.78
2023-02-08T07:06:05.054Z,-2.80
2023-02-08T07:08:30.346Z,-2.66
2023-02-08T07:11:01.044Z,-2.78
2023-02-08T07:13:31.492Z,-2.80
2023-02-08T07:16:04.067Z,-2.66
2023-02-08T07:18:38.165Z,-2.68
2023-02-08T07:21:09.059Z,-2.65
2023-02-08T07:23:44.735Z,-2.57
2023-02-08T07:26:17.069Z,-2.66
2023-02-08T07:28:47.825Z,-2.58
2023-02-08T07:31:18.948Z,-2.50
2023-02-08T07:33:50.004Z,-2.39
2023-02-08T07:36:20.431Z,-2.31
2023-02-08T07:38:50.931Z,-2.38
2023-02-08T07:41:21.416Z,-2.30
2023-02-08T07:43:53.174Z,-2.26
2023-02-08T07:46:23.786Z,-2.23
2023-02-08T07:48:54.270Z,-2.04
2023-02-08T07:51:26.267Z,-1.81
2023-02-08T07:53:56.926Z,-1.60
2023-02-08T07:56:27.460Z,-1.73
2023-02-08T07:58:58.049Z,-1.98
2023-02-08T08:01:28.660Z,-1.78
2023-02-08T08:04:00.584Z,-1.98
2023-02-08T08:06:31.108Z,-1.87
2023-02-08T08:09:03.358Z,-1.84
2023-02-08T08:11:34.088Z,-1.98
2023-02-08T08:14:05.885Z,-2.02
2023-02-08T08:16:36.602Z,-2.00
2023-02-08T08:19:08.828Z,-1.93
2023-02-08T08:21:39.460Z,-1.79
2023-02-08T08:24:10.182Z,-1.76
2023-02-08T08:26:40.952Z,-1.85
2023-02-08T08:29:11.505Z,-1.82
2023-02-08T08:31:44.953Z,-1.64
2023-02-08T08:34:16.773Z,-1.56
2023-02-08T08:36:47.190Z,-1.43
2023-02-08T08:39:17.805Z,-1.36
2023-02-08T08:41:48.355Z,-1.32
2023-02-08T08:44:19.190Z,-1.36
2023-02-08T08:46:52.540Z,-1.40
2023-02-08T08:49:23.413Z,-1.46
2023-02-08T08:51:54.643Z,-1.40
2023-02-08T08:54:27.851Z,-1.32
2023-02-08T08:56:58.643Z,-1.26
2023-02-08T08:59:30.770Z,-1.11
2023-02-08T09:02:01.845Z,-0.98
2023-02-08T09:04:32.457Z,-1.08
2023-02-08T09:07:03.068Z,-1.00
2023-02-08T09:09:36.250Z,-0.88
2023-02-08T09:12:09.661Z,-0.98
2023-02-08T09:14:41.812Z,-0.76
2023-02-08T09:17:13.275Z,-0.82
2023-02-08T09:19:44.245Z,-0.75
2023-02-08T09:22:16.068Z,-0.69
2023-02-08T09:24:46.597Z,-0.76
2023-02-08T09:27:18.963Z,-0.88
2023-02-08T09:29:51.204Z,-0.66
2023-02-08T09:32:23.082Z,-0.52
2023-02-08T09:34:53.949Z,-0.48
2023-02-08T09:37:24.422Z,-0.26
2023-02-08T09:39:55.010Z,-0.18
2023-02-08T09:42:37.274Z,0.09
2023-02-08T09:45:22.835Z,-0.10
2023-02-08T09:48:08.232Z,-0.15
2023-02-08T09:50:44.120Z,-0.06
2023-02-08T09:53:35.160Z,-0.26
2023-02-08T09:56:11.794Z,-0.24
2023-02-08T09:58:52.948Z,-0.13
2023-02-08T10:01:27.130Z,-0.18
2023-02-08T10:04:05.023Z,-0.38
2023-02-08T10:06:38.229Z,-0.27
2023-02-08T10:09:14.202Z,-0.15
2023-02-08T10:12:09.007Z,-0.40
2023-02-08T10:15:07.020Z,-0.27
2023-02-08T10:17:46.058Z,-0.34
2023-02-08T10:20:44.034Z,-0.24
2023-02-08T10:23:22.514Z,-0.06
2023-02-08T10:26:20.560Z,-0.14
2023-02-08T10:29:16.805Z,0.05
2023-02-08T10:32:08.528Z,0.29
2023-02-08T10:34:58.489Z,0.44
2023-02-08T10:37:39.792Z,0.39
2023-02-08T10:40:29.952Z,0.78
2023-02-08T10:43:06.277Z,0.88
2023-02-08T10:45:44.371Z,1.04
2023-02-08T10:48:37.462Z,1.00
2023-02-08T10:51:20.316Z,0.66
2023-02-08T10:53:50.985Z,0.38
2023-02-08T10:56:34.658Z,0.33
2023-02-08T10:59:14.414Z,0.50
2023-02-08T11:01:48.135Z,0.50
2023-02-08T11:04:19.493Z,0.68
2023-02-08T11:06:51.884Z,0.53
2023-02-08T11:09:29.125Z,0.60
2023-02-08T11:12:02.616Z,0.64
2023-02-08T11:14:47.058Z,0.61
2023-02-08T11:17:32.425Z,0.34
2023-02-08T11:20:03.245Z,0.46
2023-02-08T11:22:34.780Z,0.58
2023-02-08T11:25:08.208Z,0.48
2023-02-08T11:27:41.870Z,0.80
2023-02-08T11:30:18.407Z,1.15
2023-02-08T11:32:52.334Z,1.16
2023-02-08T11:35:25.123Z,0.73
2023-02-08T11:37:58.680Z,1.22
2023-02-08T11:40:41.381Z,1.08
2023-02-08T11:43:30.273Z,1.00
2023-02-08T11:46:03.107Z,0.60
2023-02-08T11:48:48.740Z,0.74
2023-02-08T11:51:36.928Z,1.24
2023-02-08T11:54:07.839Z,1.06
2023-02-08T11:56:38.638Z,1.11
2023-02-08T11:59:25.190Z,1.30
2023-02-08T12:01:57.587Z,1.56
2023-02-08T12:04:29.610Z,1.80
2023-02-08T12:07:18.089Z,1.64
2023-02-08T12:10:26.196Z,1.74
2023-02-08T12:13:21.552Z,1.72
2023-02-08T12:16:14.512Z,1.47
2023-02-08T12:18:56.843Z,1.79
2023-02-08T12:21:31.636Z,1.89
2023-02-08T12:24:14.239Z,2.40
2023-02-08T12:27:04.823Z,2.90
2023-02-08T12:29:47.709Z,3.34
2023-02-08T12:32:22.098Z,3.62
2023-02-08T12:35:14.747Z,3.06
2023-02-08T12:38:08.600Z,2.39
2023-02-08T12:41:02.885Z,2.20
2023-02-08T12:43:39.147Z,1.76
2023-02-08T12:46:22.017Z,1.64
2023-02-08T12:49:14.662Z,1.66
2023-02-08T12:52:03.310Z,1.30
2023-02-08T12:54:45.569Z,1.74
2023-02-08T12:57:19.720Z,1.58
2023-02-08T12:59:53.258Z,1.56
2023-02-08T13:02:40.522Z,1.66
2023-02-08T13:05:20.315Z,1.54
2023-02-08T13:07:53.954Z,1.56
2023-02-08T13:10:31.746Z,1.54
2023-02-08T13:13:13.963Z,1.46
2023-02-08T13:15:53.188Z,1.50
2023-02-08T13:18:35.954Z,1.45
2023-02-08T13:21:15.215Z,1.46
2023-02-08T13:23:52.743Z,1.50
2023-02-08T13:26:31.674Z,1.36
2023-02-08T13:29:04.581Z,1.50
2023-02-08T13:31:43.794Z,1.58
2023-02-08T13:34:23.482Z,1.33
2023-02-08T13:36:58.480Z,1.51
2023-02-08T13:39:40.952Z,1.54
2023-02-08T13:42:39.646Z,1.72
2023-02-08T13:45:13.506Z,1.61
2023-02-08T13:47:47.179Z,1.61
2023-02-08T13:50:41.661Z,1.46
2023-02-08T13:53:14.042Z,1.38
2023-02-08T13:55:56.053Z,1.37
2023-02-08T13:58:38.208Z,1.48
2023-02-08T14:01:23.365Z,1.46
2023-02-08T14:04:11.825Z,1.57
2023-02-08T14:06:52.621Z,1.62
2023-02-08T14:09:26.283Z,1.75
2023-02-08T14:12:05.536Z,1.68
2023-02-08T14:14:38.505Z,1.65
2023-02-08T14:17:20.878Z,1.58
2023-02-08T14:20:00.552Z,1.45
2023-02-08T14:22:40.160Z,1.46
2023-02-08T14:25:33.239Z,1.54
2023-02-08T14:28:04.213Z,1.52
2023-02-08T14:30:42.158Z,1.62
2023-02-08T14:33:16.362Z,1.56
2023-02-08T14:35:59.199Z,1.61
2023-02-08T14:38:50.360Z,1.54
2023-02-08T14:41:43.633Z,1.67
2023-02-08T14:44:45.441Z,1.57
2023-02-08T14:47:27.217Z,1.62
2023-02-08T14:50:20.681Z,1.55
2023-02-08T14:53:06.459Z,1.53
2023-02-08T14:55:58.745Z,1.68
2023-02-08T14:58:35.310Z,1.58
2023-02-08T15:01:10.107Z,1.45
2023-02-08T15:03:43.095Z,1.48
2023-02-08T15:06:22.782Z,1.41
2023-02-08T15:08:55.717Z,1.44
2023-02-08T15:11:29.596Z,1.36
2023-02-08T15:14:04.306Z,1.47
2023-02-08T15:16:44.095Z,1.40
2023-02-08T15:19:42.834Z,1.38
2023-02-08T15:22:22.082Z,1.36
2023-02-08T15:24:55.813Z,1.28
2023-02-08T15:27:34.764Z,1.27
2023-02-08T15:30:05.651Z,1.38
2023-02-08T15:32:36.328Z,1.31
2023-02-08T15:35:07.344Z,1.26
2023-02-08T15:37:38.105Z,1.22
2023-02-08T15:40:10.816Z,1.18
2023-02-08T15:42:44.392Z,1.20
2023-02-08T15:45:26.964Z,1.11
2023-02-08T15:47:59.054Z,1.02
2023-02-08T15:50:33.192Z,0.97
2023-02-08T15:53:07.105Z,0.94
2023-02-08T15:55:42.002Z,0.89
2023-02-08T15:58:38.380Z,0.84
2023-02-08T16:01:12.115Z,0.82
2023-02-08T16:03:44.423Z,0.91
2023-02-08T16:06:17.425Z,0.82
2023-02-08T16:08:50.746Z,0.84
2023-02-08T16:11:31.317Z,0.78
2023-02-08T16:14:05.025Z,0.78
2023-02-08T16:16:48.929Z,0.77
2023-02-08T16:19:25.457Z,0.70
2023-02-08T16:21:58.969Z,0.65
2023-02-08T16:24:29.903Z,0.64
2023-02-08T16:27:11.127Z,0.58
2023-02-08T16:29:42.616Z,0.49
2023-02-08T16:32:35.725Z,0.48
2023-02-08T16:35:14.633Z,0.52
2023-02-08T16:37:45.182Z,0.38
2023-02-08T16:40:46.543Z,0.40
2023-02-08T16:43:35.842Z,0.34
2023-02-08T16:46:18.258Z,0.33
2023-02-08T16:48:57.639Z,0.22
2023-02-08T16:51:31.362Z,0.38
2023-02-08T16:54:11.572Z,0.18
2023-02-08T16:56:43.996Z,0.24
2023-02-08T16:59:15.141Z,0.18
2023-02-08T17:01:47.730Z,0.32
2023-02-08T17:04:18.865Z,0.44
2023-02-08T17:06:49.615Z,0.20
2023-02-08T17:09:20.380Z,0.20
2023-02-08T17:11:51.064Z,0.10
2023-02-08T17:14:21.520Z,0.10
2023-02-08T17:16:52.287Z,0.06
2023-02-08T17:19:22.867Z,0.11
2023-02-08T17:21:53.349Z,0.00
2023-02-08T17:24:24.240Z,0.00
2023-02-08T17:26:55.221Z,-0.07
2023-02-08T17:29:25.766Z,-0.08
2023-02-08T17:31:56.090Z,-0.02
2023-02-08T17:34:27.777Z,-0.08
2023-02-08T17:36:58.193Z,-0.02
2023-02-08T17:39:28.985Z,-0.08
2023-02-08T17:42:01.017Z,-0.04
2023-02-08T17:44:31.620Z,0.05
2023-02-08T17:47:02.623Z,-0.07
2023-02-08T17:49:33.161Z,-0.12
2023-02-08T17:52:03.635Z,-0.17
2023-02-08T17:54:36.726Z,-0.18
2023-02-08T17:57:07.993Z,-0.22
2023-02-08T17:59:41.008Z,-0.11
2023-02-08T18:02:11.463Z,-0.10
2023-02-08T18:04:41.910Z,-0.14
2023-02-08T18:07:12.828Z,-0.18
2023-02-08T18:09:43.404Z,-0.21
2023-02-08T18:12:14.362Z,-0.14
2023-02-08T18:14:45.026Z,-0.24
2023-02-08T18:17:15.508Z,-0.34
2023-02-08T18:19:46.059Z,-0.39
2023-02-08T18:22:16.894Z,-0.28
2023-02-08T18:24:49.222Z,-0.38
2023-02-08T18:27:19.778Z,-0.36
2023-02-08T18:29:50.505Z,-0.25
2023-02-08T18:32:31.699Z,-0.38
2023-02-08T18:35:04.498Z,-0.40
2023-02-08T18:37:36.455Z,-0.30
2023-02-08T18:40:09.224Z,-0.43
2023-02-08T18:42:39.707Z,-0.42
2023-02-08T18:45:12.511Z,-0.45
2023-02-08T18:47:42.910Z,-0.42
2023-02-08T18:50:14.536Z,-0.37
2023-02-08T18:52:44.922Z,-0.58
2023-02-08T18:55:15.600Z,-0.45
2023-02-08T18:57:52.713Z,-0.38
2023-02-08T19:00:23.489Z,-0.54
2023-02-08T19:02:55.616Z,-0.50
2023-02-08T19:05:26.065Z,-0.46
2023-02-08T19:07:56.482Z,-0.56
2023-02-08T19:10:26.995Z,-0.57
2023-02-08T19:12:59.272Z,-0.62
2023-02-08T19:15:29.808Z,-0.64
2023-02-08T19:18:00.344Z,-0.70
2023-02-08T19:20:31.028Z,-0.70
2023-02-08T19:23:01.517Z,-0.61
2023-02-08T19:25:32.362Z,-0.74
2023-02-08T19:28:02.865Z,-0.75
2023-02-08T19:30:33.356Z,-0.76
2023-02-08T19:33:04.383Z,-0.74
2023-02-08T19:35:37.515Z,-0.79
2023-02-08T19:38:07.937Z,-0.80
2023-02-08T19:40:41.482Z,-0.82
2023-02-08T19:43:12.295Z,-0.96
2023-02-08T19:45:45.975Z,-0.85
2023-02-08T19:48:16.888Z,-0.84
2023-02-08T19:50:59.250Z,-0.86
2023-02-08T19:53:30.175Z,-0.93
2023-02-08T19:56:04.931Z,-0.93
2023-02-08T19:58:37.107Z,-0.94
2023-02-08T20:01:10.672Z,-0.99
2023-02-08T20:03:41.941Z,-1.02
2023-02-08T20:06:17.319Z,-1.05
2023-02-08T20:08:49.083Z,-0.96
2023-02-08T20:11:22.600Z,-1.04
2023-02-08T20:13:54.335Z,-1.04
2023-02-08T20:16:27.328Z,-1.08
2023-02-08T20:18:59.235Z,-1.06
2023-02-08T20:21:30.542Z,-1.08
2023-02-08T20:24:03.144Z,-1.09
2023-02-08T20:26:33.510Z,-1.14
2023-02-08T20:29:06.104Z,-1.12
2023-02-08T20:31:39.157Z,-1.22
2023-02-08T20:34:12.405Z,-1.22
2023-02-08T20:37:05.307Z,-1.11
2023-02-08T20:39:21.572Z,-1.22
2023-02-08T20:41:52.002Z,-1.18
2023-02-08T20:44:22.529Z,-1.22
2023-02-08T20:46:54.581Z,-1.16
2023-02-08T20:49:26.900Z,-1.28
2023-02-08T20:51:57.517Z,-1.20
2023-02-08T20:54:29.556Z,-1.14
2023-02-08T20:57:00.990Z,-1.16
2023-02-08T20:59:31.926Z,-1.18
2023-02-08T21:02:02.362Z,-1.14
2023-02-08T21:04:35.048Z,-1.16
2023-02-08T21:07:05.495Z,-1.16
2023-02-08T21:09:36.291Z,-1.14
2023-02-08T21:12:06.901Z,-1.22
2023-02-08T21:14:37.523Z,-1.21
2023-02-08T21:17:08.445Z,-1.19
2023-02-08T21:19:39.578Z,-1.27
2023-02-08T21:22:11.302Z,-1.22
2023-02-08T21:24:41.778Z,-1.26
2023-02-08T21:27:14.005Z,-1.26
2023-02-08T21:29:44.526Z,-1.16
2023-02-08T21:32:17.638Z,-1.16
2023-02-08T21:34:50.876Z,-1.20
2023-02-08T21:37:21.504Z,-1.28
2023-02-08T21:39:52.051Z,-1.34
2023-02-08T21:42:22.511Z,-1.34
2023-02-08T21:44:53.052Z,-1.40
2023-02-08T21:47:23.445Z,-1.38
2023-02-08T21:50:12.272Z,-1.32
2023-02-08T21:53:00.303Z,-1.50
2023-02-08T21:55:31.964Z,-1.48
2023-02-08T21:58:02.474Z,-1.50
2023-02-08T22:00:32.942Z,-1.46
2023-02-08T22:03:03.446Z,-1.58
2023-02-08T22:05:52.985Z,-1.49
2023-02-08T22:08:23.450Z,-1.58
2023-02-08T22:10:58.930Z,-1.65
2023-02-08T22:13:29.418Z,-1.67
2023-02-08T22:16:02.328Z,-1.64
2023-02-08T22:18:33.020Z,-1.74
2023-02-08T22:21:05.928Z,-1.64
2023-02-08T22:23:36.962Z,-1.75
2023-02-08T22:26:10.787Z,-1.76
2023-02-08T22:28:42.786Z,-1.80
2023-02-08T22:31:15.517Z,-1.86
2023-02-08T22:33:48.230Z,-1.86
2023-02-08T22:36:18.410Z,-1.90
2023-02-08T22:38:48.956Z,-1.92
2023-02-08T22:41:20.099Z,-1.94
2023-02-08T22:43:51.151Z,-1.84
2023-02-08T22:46:23.190Z,-1.96
2023-02-08T22:48:53.686Z,-2.06
2023-02-08T22:51:24.092Z,-2.01
2023-02-08T22:53:56.093Z,-2.08
2023-02-08T22:56:26.779Z,-2.09
2023-02-08T22:58:57.241Z,-2.12
2023-02-08T23:01:28.221Z,-2.12
2023-02-08T23:04:00.976Z,-2.18
2023-02-08T23:06:33.574Z,-2.24
2023-02-08T23:09:07.139Z,-2.18
2023-02-08T23:11:39.249Z,-2.27
2023-02-08T23:14:10.039Z,-2.22
2023-02-08T23:16:40.652Z,-2.16
2023-02-08T23:19:18.538Z,-2.22
2023-02-08T23:21:49.053Z,-2.26
2023-02-08T23:24:20.754Z,-2.31
2023-02-08T23:26:51.285Z,-2.20
2023-02-08T23:29:23.491Z,-2.25
2023-02-08T23:31:55.794Z,-2.26
2023-02-08T23:34:26.001Z,-2.26
2023-02-08T23:36:58.969Z,-2.31
2023-02-08T23:39:29.432Z,-2.41
2023-02-08T23:41:59.822Z,-2.37
2023-02-08T23:44:30.324Z,-2.38
2023-02-08T23:47:02.217Z,-2.46
2023-02-08T23:49:32.775Z,-2.42
2023-02-08T23:52:03.249Z,-2.43
2023-02-08T23:54:34.028Z,-2.40
2023-02-08T23:57:07.368Z,-2.54
2023-02-08T23:59:39.180Z,-2.40
